Time;durP1;ratioP1;P1;durP2;ratioP2;P2;SDS_P1;SDS_P2;PMS_P1;PMS_P2;Temp;Humidity;BMP_temperature;BMP_pressure;BME280_temperature;BME280_humidity;BME280_pressure;Samples;Min_cycle;Max_cycle;Signal;HPM_P1;HPM_P2
2023/10/30 00:01:16;;;;;;;7.28;4.28;;;;;;;;;;12668684;23;20648;-76
2023/10/30 00:06:12;;;;;;;8.15;4.00;;;;;;;;;;12695906;23;20097;-75
2023/10/30 06:33:59;;;;;;;11.23;6.60;;;;;;;;;;12697811;22;20016;-75
2023/10/30 08:33:55;;;;;;;13.98;5.32;;;;;;;;;;12697402;22;20016;-75
2023/10/30 08:45:27;;;;;;;;;;;;;;;;;;;;;
2023/10/30 09:20:32;;;;;;;16.30;5.75;;;;;;;;;;12386979;23;20117;-76
2023/10/30 09:26:19;;;;;;;11.50;4.88;;;;;;;;;;12408468;23;20022;-76
2023/10/30 09:31:41;;;;;;;16.77;5.78;;;;;;;;;;12424530;23;20081;-76
2023/10/30 09:49:47;;;;;;;8.43;4.95;;;;;;;;;;12334091;23;20026;-75
2023/10/30 10:24:50;;;;;;;7.93;5.18;;;;;;;;;;12699913;22;20032;-75
2023/10/30 10:31:17;;;;;;;;;;;;;;;;;;;;;
2023/10/30 10:36:55;;;;;;;;;;;;;;;;;;;;;
2023/10/30 10:42:44;;;;;;;11.77;5.28;;;;;;;;;;12502769;23;20013;-75
2023/10/30 10:47:40;;;;;;;9.27;5.45;;;;;;;;;;12577830;23;20540;-75
2023/10/30 10:52:39;;;;;;;11.10;5.80;;;;;;;;;;12672397;23;20020;-75
2023/10/30 10:57:49;;;;;;;16.48;5.82;;;;;;;;;;12672314;23;20027;-76
2023/10/30 11:02:51;;;;;;;14.18;5.80;;;;;;;;;;12698436;23;20404;-75
2023/10/30 11:07:52;;;;;;;9.55;5.28;;;;;;;;;;12698473;23;20115;-75
2023/10/30 12:03:38;;;;;;;8.57;5.00;;;;;;;;;;12329734;23;20011;-76
2023/10/30 12:27:46;;;;;;;10.43;5.47;;;;;;;;;;12099332;24;20049;-75
2023/10/30 12:38:51;;;;;;;10.40;5.82;;;;;;;;;;12524428;23;20101;-76
2023/10/30 12:50:04;;;;;;;9.80;5.80;;;;;;;;;;12696951;22;20072;-74
2023/10/30 12:55:01;;;;;;;8.13;5.50;;;;;;;;;;12693087;23;20020;-73
2023/10/30 12:59:57;;;;;;;9.52;6.43;;;;;;;;;;12696873;22;20118;-74
2023/10/30 13:04:54;;;;;;;13.18;6.78;;;;;;;;;;12696403;23;20501;-75
2023/10/30 13:09:50;;;;;;;11.10;5.80;;;;;;;;;;12695766;22;20548;-73
2023/10/30 13:14:47;;;;;;;10.88;5.90;;;;;;;;;;12696079;23;20031;-74
2023/10/30 13:19:43;;;;;;;9.10;5.80;;;;;;;;;;12689665;22;20071;-75
2023/10/30 13:24:40;;;;;;;10.90;5.80;;;;;;;;;;12695511;23;20030;-74
2023/10/30 13:29:36;;;;;;;12.70;6.10;;;;;;;;;;12695459;22;20465;-74
2023/10/30 13:34:32;;;;;;;8.35;5.43;;;;;;;;;;12696806;23;20028;-74
2023/10/30 13:39:29;;;;;;;16.30;5.97;;;;;;;;;;12695415;22;20031;-73
2023/10/30 13:44:25;;;;;;;12.73;5.60;;;;;;;;;;12695703;23;20532;-74
2023/10/30 13:49:22;;;;;;;7.43;5.72;;;;;;;;;;12695775;22;20625;-74
2023/10/30 13:54:19;;;;;;;6.93;5.15;;;;;;;;;;12698010;23;20051;-74
2023/10/30 13:59:15;;;;;;;10.18;5.00;;;;;;;;;;12698532;22;20023;-75
2023/10/30 14:04:11;;;;;;;8.65;5.55;;;;;;;;;;12699944;23;20016;-75
2023/10/30 14:09:08;;;;;;;10.15;5.85;;;;;;;;;;12698264;22;20532;-75
2023/10/30 14:14:04;;;;;;;15.15;5.72;;;;;;;;;;12699778;23;20028;-74
2023/10/30 14:19:02;;;;;;;9.90;5.70;;;;;;;;;;12672086;22;20032;-75
2023/10/30 14:45:37;;;;;;;13.43;6.50;;;;;;;;;;12697799;22;20016;-75
2023/10/30 17:00:34;;;;;;;;;;;;;;;;;;;;;
2023/10/30 17:06:37;;;;;;;;;;;;;;;;;;;;;
2023/10/30 17:18:49;;;;;;;;;;;;;;;;;;;;;
2023/10/30 18:28:01;;;;;;;12.73;6.45;;;;;;;;;;12707676;22;20027;-74
2023/10/30 18:32:43;;;;;;;10.95;7.28;;;;;;;;;;12700279;22;20039;-74
2023/10/30 18:37:40;;;;;;;13.55;7.43;;;;;;;;;;12708904;23;20031;-73
2023/10/30 18:42:37;;;;;;;12.35;7.85;;;;;;;;;;12708332;22;20095;-74
2023/10/30 18:47:34;;;;;;;16.90;7.97;;;;;;;;;;12709364;23;20024;-74
2023/10/30 19:04:19;;;;;;;7.30;6.60;;;;;;;;;;12636569;23;20053;-74
2023/10/30 19:09:17;;;;;;;10.40;7.32;;;;;;;;;;12644362;23;20095;-74
2023/10/30 19:14:13;;;;;;;12.88;7.22;;;;;;;;;;12618684;23;20079;-73
2023/10/30 19:19:10;;;;;;;10.73;7.47;;;;;;;;;;12642118;23;20021;-73
2023/10/30 19:47:31;;;;;;;9.73;6.78;;;;;;;;;;12693199;22;20016;-74
2023/10/30 19:52:29;;;;;;;10.02;6.53;;;;;;;;;;12701757;22;20046;-74
2023/10/30 19:57:26;;;;;;;11.48;7.13;;;;;;;;;;12673255;23;20658;-74
2023/10/30 20:35:57;;;;;;;8.90;6.70;;;;;;;;;;12666944;23;20016;-75
2023/10/30 20:57:52;;;;;;;12.00;8.38;;;;;;;;;;12687818;23;20030;-73
2023/10/30 21:02:49;;;;;;;11.05;7.80;;;;;;;;;;12700617;22;20016;-74
2023/10/30 21:07:47;;;;;;;8.73;7.63;;;;;;;;;;12697837;23;20055;-74
2023/10/30 21:12:44;;;;;;;11.00;7.97;;;;;;;;;;12705182;22;20062;-74
2023/10/30 21:17:42;;;;;;;9.32;7.05;;;;;;;;;;12677014;23;20496;-72
2023/10/30 21:34:25;;;;;;;;;;;;;;;;;;;;;
2023/10/30 21:39:25;;;;;;;8.15;7.20;;;;;;;;;;12598100;23;20453;-73
2023/10/30 21:44:22;;;;;;;8.27;7.00;;;;;;;;;;12631202;23;20035;-72
2023/10/30 21:49:19;;;;;;;8.82;6.95;;;;;;;;;;12634193;23;20079;-72
2023/10/30 21:54:15;;;;;;;10.45;6.70;;;;;;;;;;12636836;23;20028;-73
2023/10/30 21:59:12;;;;;;;9.75;6.70;;;;;;;;;;12636732;23;20471;-72
2023/10/30 22:04:08;;;;;;;8.35;7.03;;;;;;;;;;12635969;23;20025;-74
2023/10/30 22:09:05;;;;;;;10.25;6.93;;;;;;;;;;12636194;23;20017;-74
2023/10/30 22:14:01;;;;;;;12.75;7.72;;;;;;;;;;12634564;23;20029;-73
2023/10/30 22:18:57;;;;;;;11.88;6.90;;;;;;;;;;12628747;23;20361;-69
2023/10/30 22:23:53;;;;;;;10.60;7.63;;;;;;;;;;12598653;23;20515;-69
2023/10/30 22:28:51;;;;;;;14.30;8.05;;;;;;;;;;12636199;23;20023;-69
2023/10/30 22:33:47;;;;;;;8.52;7.47;;;;;;;;;;12635611;23;20028;-70
2023/10/30 22:38:43;;;;;;;9.00;7.18;;;;;;;;;;12636750;23;20104;-68
2023/10/30 22:43:40;;;;;;;9.10;7.07;;;;;;;;;;12636521;23;20017;-69
2023/10/30 22:48:36;;;;;;;9.25;6.53;;;;;;;;;;12636256;23;20462;-69
2023/10/30 22:53:32;;;;;;;8.88;7.95;;;;;;;;;;12636829;23;20029;-69
2023/10/30 22:58:28;;;;;;;18.17;8.63;;;;;;;;;;12635323;23;20029;-69
2023/10/30 23:03:25;;;;;;;10.50;7.85;;;;;;;;;;12636286;23;20025;-69
2023/10/30 23:08:21;;;;;;;10.25;7.57;;;;;;;;;;12636282;23;20082;-68
2023/10/30 23:13:18;;;;;;;9.50;7.93;;;;;;;;;;12635571;23;20024;-69
2023/10/30 23:18:14;;;;;;;8.77;7.82;;;;;;;;;;12636195;23;20031;-68
2023/10/30 23:23:10;;;;;;;9.90;8.93;;;;;;;;;;12609522;23;20025;-69
2023/10/30 23:28:07;;;;;;;11.43;8.13;;;;;;;;;;12624731;23;20029;-70
2023/10/30 23:33:03;;;;;;;9.65;7.38;;;;;;;;;;12636361;23;20028;-69
2023/10/30 23:38:00;;;;;;;14.50;7.88;;;;;;;;;;12635733;23;20563;-69
2023/10/30 23:43:06;;;;;;;9.85;8.18;;;;;;;;;;12635146;23;20104;-69
2023/10/30 23:48:02;;;;;;;8.57;7.63;;;;;;;;;;12635889;23;20028;-68
2023/10/30 23:52:59;;;;;;;13.45;9.05;;;;;;;;;;12635990;23;20052;-69
2023/10/30 23:57:55;;;;;;;8.82;7.93;;;;;;;;;;12635984;23;20508;-69
